Terminal Aerodrome Forecast
Issued by NWS Shreveport, LA

Home | Current Version | Previous Version | Text Only | Print | Product List | Glossary On
Versions: 1 2 3 4 5 6 7 8 9 10 11 12 13 14 15
000
FTUS44 KSHV 230520
TAFTXK
TAF
KTXK 230520Z 2306/2406 VRB02KT P6SM VCSH BKN180
     FM231500 04005KT P6SM VCTS BKN035CB BKN250
      TEMPO 2318/2322 -TSRA BKN040CB
     FM232300 05005KT P6SM VCTS BKN040CB
     FM240300 05003KT P6SM SCT050 SCT250=

USA.gov is the U.S. government's official web portal to all federal, state and local government web resources and services.